Time;durP1;ratioP1;P1;durP2;ratioP2;P2;SDS_P1;SDS_P2;PMS_P1;PMS_P2;Temp;Humidity;BMP_temperature;BMP_pressure;BME280_temperature;BME280_humidity;BME280_pressure;Samples;Min_cycle;Max_cycle;Signal;HPM_P1;HPM_P2
2022/01/04 00:01:40;;;;;;;8.15;2.95;;;6.60;99.90;;;6.69;78.40;99782.44;5097379;28;20191;-75
2022/01/04 00:04:09;;;;;;;4.35;2.90;;;6.70;99.90;;;6.80;78.03;99783.72;5097133;28;20186;-73
2022/01/04 00:06:37;;;;;;;5.00;2.92;;;6.70;38.40;;;6.89;78.16;99777.09;5096713;28;20180;-73
2022/01/04 00:09:07;;;;;;;6.18;2.50;;;6.80;1.00;;;6.80;78.52;99767.59;5096729;28;20405;-73
2022/01/04 00:11:56;;;;;;;5.15;2.25;;;6.80;1.00;;;6.85;78.20;99763.25;5095088;28;20249;-73
2022/01/04 00:14:26;;;;;;;4.55;2.05;;;6.80;1.00;;;6.98;77.85;99763.25;5094668;28;20194;-72
2022/01/04 00:16:55;;;;;;;4.85;3.13;;;6.90;1.00;;;7.04;77.48;99750.00;5096500;28;20558;-74
2022/01/04 00:19:24;;;;;;;5.90;3.22;;;6.90;1.00;;;7.08;77.81;99745.88;5096698;28;20176;-74
2022/01/04 00:21:53;;;;;;;3.53;2.20;;;7.00;1.00;;;7.19;77.03;99748.78;5097231;28;20167;-72
2022/01/04 00:24:22;;;;;;;7.22;2.75;;;7.10;99.90;;;7.19;76.89;99748.78;5097132;28;20199;-71
2022/01/04 00:26:50;;;;;;;6.50;3.40;;;7.10;99.90;;;7.28;76.33;99735.94;5097473;28;20236;-73
2022/01/04 00:29:19;;;;;;;4.20;2.40;;;7.20;99.90;;;7.26;76.51;99733.44;5097145;28;20194;-74
2022/01/04 00:31:48;;;;;;;9.88;3.55;;;7.20;56.70;;;7.11;76.83;99735.53;5095233;28;20195;-72
2022/01/04 00:34:17;;;;;;;3.28;2.80;;;7.10;21.60;;;7.00;77.12;99733.47;5096622;28;20171;-72
2022/01/04 00:36:45;;;;;;;4.63;4.13;;;7.00;80.40;;;7.02;77.85;99731.38;5096467;28;20176;-72
2022/01/04 00:39:13;;;;;;;7.85;3.50;;;7.00;99.90;;;7.02;77.51;99731.38;5096042;28;20215;-74
2022/01/04 00:41:42;;;;;;;4.60;3.75;;;7.00;99.90;;;6.90;77.68;99733.06;5096231;28;20178;-72
2022/01/04 00:44:10;;;;;;;5.80;3.70;;;7.00;99.90;;;6.97;77.35;99723.13;5096101;28;20198;-69
2022/01/04 00:46:39;;;;;;;8.43;3.28;;;7.00;99.90;;;6.83;77.76;99721.44;5094849;28;20227;-73
2022/01/04 00:49:10;;;;;;;7.85;3.33;;;6.90;99.90;;;6.85;78.07;99714.84;5094070;28;20713;-73
2022/01/04 00:51:40;;;;;;;5.18;2.72;;;6.90;99.90;;;6.72;78.29;99704.09;5095182;28;20233;-71
2022/01/04 00:54:10;;;;;;;8.90;3.50;;;6.80;99.90;;;6.81;78.37;99704.72;5097046;28;20203;-74
2022/01/04 00:56:39;;;;;;;7.63;3.30;;;6.80;1.00;;;6.86;78.10;99705.75;5096994;28;20172;-72
2022/01/04 00:59:08;;;;;;;5.03;2.72;;;6.80;1.00;;;6.72;78.23;99703.25;5094778;28;20215;-71
2022/01/04 01:01:38;;;;;;;3.03;2.75;;;6.80;99.90;;;6.79;78.09;99698.69;5095650;28;20183;-71
2022/01/04 01:04:09;;;;;;;4.82;3.50;;;6.80;1.00;;;6.72;78.33;99692.50;5097597;28;20175;-74
2022/01/04 01:06:38;;;;;;;6.70;3.42;;;6.80;1.00;;;6.93;77.79;99689.59;5096426;28;20187;-70
2022/01/04 01:09:07;;;;;;;3.90;2.65;;;6.80;1.00;;;6.74;78.23;99687.75;5094039;28;20237;-73
2022/01/04 01:11:36;;;;;;;7.32;3.60;;;6.80;99.90;;;6.63;78.87;99683.00;5092229;28;20175;-70
2022/01/04 01:14:04;;;;;;;9.70;3.38;;;6.70;1.00;;;6.81;78.00;99683.19;5092820;28;20270;-72
2022/01/04 01:16:33;;;;;;;4.95;3.17;;;6.80;1.00;;;6.73;78.63;99678.03;5092346;28;20228;-69
2022/01/04 01:19:01;;;;;;;3.25;2.67;;;6.70;1.00;;;6.64;78.91;99671.19;5091455;28;20246;-72
2022/01/04 01:21:31;;;;;;;10.07;3.55;;;6.70;1.00;;;6.68;78.68;99667.06;5090998;28;20183;-72
2022/01/04 01:24:00;;;;;;;3.15;2.80;;;6.70;1.00;;;6.69;78.55;99664.16;5090740;28;20195;-71
2022/01/04 01:26:28;;;;;;;7.45;3.10;;;6.70;1.00;;;6.83;78.22;99662.28;5089678;28;20332;-71
2022/01/04 01:28:57;;;;;;;4.30;2.63;;;6.70;1.00;;;6.65;78.20;99660.25;5091655;28;20617;-71
2022/01/04 01:31:25;;;;;;;5.78;3.28;;;6.70;1.00;;;6.75;79.23;99659.81;5090509;28;20309;-72
2022/01/04 01:33:54;;;;;;;7.10;2.90;;;6.70;1.00;;;6.76;78.31;99658.78;5090279;28;20195;-72
2022/01/04 01:36:22;;;;;;;5.30;2.55;;;6.70;1.00;;;6.78;78.00;99652.16;5090857;28;20168;-70
2022/01/04 01:38:52;;;;;;;5.80;2.83;;;6.80;1.00;;;6.83;77.67;99652.38;5091210;28;20418;-70
2022/01/04 01:41:21;;;;;;;2.28;2.05;;;6.80;1.00;;;6.80;77.82;99646.59;5091040;28;20175;-70
2022/01/04 01:43:49;;;;;;;4.93;3.15;;;6.80;99.90;;;6.96;77.48;99643.47;5090773;28;20172;-71
2022/01/04 01:46:17;;;;;;;4.47;2.20;;;6.80;99.90;;;6.89;77.38;99637.25;5090675;28;20206;-71
2022/01/04 01:48:46;;;;;;;9.23;2.70;;;6.80;99.90;;;6.94;77.96;99624.03;5090358;28;20211;-72
2022/01/04 01:51:17;;;;;;;3.50;2.50;;;6.80;99.90;;;6.86;77.80;99614.31;5090710;28;20369;-70
2022/01/04 01:53:46;;;;;;;6.35;3.28;;;6.80;99.90;;;6.80;77.54;99614.31;5090518;28;20183;-71
2022/01/04 01:56:16;;;;;;;3.08;2.10;;;6.80;99.90;;;6.90;77.35;99625.47;5090095;28;20199;-71
2022/01/04 01:58:44;;;;;;;4.60;2.88;;;6.80;99.90;;;6.98;77.32;99617.19;5088668;28;20272;-72
2022/01/04 02:01:13;;;;;;;3.63;2.60;;;6.90;99.90;;;6.87;77.93;99609.78;5090112;28;20171;-73
2022/01/04 02:03:42;;;;;;;7.47;3.03;;;6.80;99.90;;;6.76;78.05;99607.72;5090944;28;20556;-68
2022/01/04 02:06:11;;;;;;;7.40;3.13;;;6.80;99.90;;;6.92;77.29;99609.97;5091428;28;20249;-72
2022/01/04 02:08:39;;;;;;;3.25;2.28;;;6.80;99.90;;;6.76;77.69;99602.34;5093483;28;20278;-70
2022/01/04 02:11:09;;;;;;;4.07;2.13;;;6.80;99.90;;;6.73;78.20;99597.38;5096552;28;20176;-71
2022/01/04 02:13:39;;;;;;;4.15;2.10;;;6.70;99.90;;;6.73;77.59;99586.63;5096505;28;20172;-73
2022/01/04 02:16:11;;;;;;;3.60;2.20;;;6.70;99.90;;;6.62;78.02;99584.56;5097335;28;20171;-73
2022/01/04 02:18:39;;;;;;;2.70;2.15;;;6.70;99.90;;;6.64;78.26;99587.88;5093687;28;20690;-72
2022/01/04 02:21:09;;;;;;;4.40;2.05;;;6.70;99.90;;;6.55;78.64;99581.88;5094508;28;20172;-71
2022/01/04 02:23:37;;;;;;;6.28;2.30;;;6.60;99.90;;;6.74;77.80;99569.44;5094241;28;20577;-72
2022/01/04 02:26:06;;;;;;;3.97;2.30;;;6.70;1.00;;;6.74;77.94;99572.13;5095046;28;20610;-74
2022/01/04 02:28:34;;;;;;;3.38;1.90;;;6.70;99.90;;;6.67;78.02;99561.41;5094428;28;20241;-73
2022/01/04 02:31:03;;;;;;;7.97;3.28;;;6.70;99.90;;;6.65;78.01;99558.09;5095193;28;20176;-69
2022/01/04 02:33:31;;;;;;;3.83;2.92;;;6.70;99.90;;;6.53;78.43;99554.41;5094337;28;20176;-72
2022/01/04 02:36:00;;;;;;;5.00;2.75;;;6.60;99.90;;;6.57;79.06;99549.44;5094841;28;20172;-74
2022/01/04 02:38:29;;;;;;;6.00;2.80;;;6.60;1.00;;;6.66;78.57;99548.16;5095457;28;20214;-70
2022/01/04 02:40:58;;;;;;;4.35;3.10;;;6.70;1.00;;;6.63;78.29;99540.53;5094877;28;20668;-73
2022/01/04 02:43:26;;;;;;;4.65;2.50;;;6.60;1.00;;;6.70;78.24;99538.66;5095150;28;20236;-71
2022/01/04 02:45:55;;;;;;;3.95;2.22;;;6.70;1.00;;;6.78;78.07;99541.09;5094440;28;20188;-70
2022/01/04 02:48:23;;;;;;;5.30;2.58;;;6.70;1.00;;;6.65;78.20;99536.59;5095776;28;20218;-70
2022/01/04 02:50:52;;;;;;;5.93;2.78;;;6.70;99.90;;;6.80;77.95;99533.66;5094227;28;20654;-71
2022/01/04 02:53:21;;;;;;;4.80;1.75;;;6.70;1.00;;;6.51;78.37;99529.59;5093779;28;20188;-71
2022/01/04 02:55:50;;;;;;;4.75;2.03;;;6.60;99.90;;;6.32;79.15;99531.25;5093197;28;20179;-72
2022/01/04 02:58:19;;;;;;;3.50;1.80;;;6.50;1.00;;;6.61;78.74;99529.16;5095029;28;20226;-70
2022/01/04 03:00:47;;;;;;;3.88;2.35;;;6.50;94.20;;;6.55;78.79;99525.44;5093812;28;20641;-70
2022/01/04 03:03:16;;;;;;;3.60;2.92;;;6.60;1.00;;;6.59;78.49;99521.28;5095462;28;20719;-71
2022/01/04 03:05:45;;;;;;;4.82;1.80;;;6.60;1.00;;;6.50;78.92;99515.31;5095321;28;20161;-71
2022/01/04 03:08:13;;;;;;;3.50;1.90;;;6.60;1.00;;;6.65;78.62;99520.47;5096141;28;20230;-71
2022/01/04 03:10:41;;;;;;;3.50;2.97;;;6.60;1.00;;;6.75;78.16;99520.03;5100076;28;20237;-73
2022/01/04 03:13:13;;;;;;;2.60;2.40;;;6.70;1.00;;;6.69;78.52;99520.84;5102163;28;20199;-72
2022/01/04 03:15:41;;;;;;;8.77;3.17;;;6.70;1.00;;;6.63;78.28;99521.72;5101413;28;20172;-73
2022/01/04 03:18:10;;;;;;;3.13;2.83;;;6.70;1.00;;;6.63;78.69;99519.03;5104686;28;20211;-72
2022/01/04 03:20:38;;;;;;;5.75;3.90;;;6.70;1.00;;;6.67;78.50;99512.19;5106169;28;20195;-72
2022/01/04 03:23:10;;;;;;;4.15;3.20;;;6.70;1.00;;;6.73;78.35;99506.00;5109465;28;20195;-69
2022/01/04 03:25:40;;;;;;;5.10;3.38;;;6.70;1.00;;;6.55;78.92;99495.88;5098589;28;20180;-71
2022/01/04 03:28:16;;;;;;;3.42;2.35;;;6.60;1.00;;;6.61;79.22;99491.53;5096766;28;20218;-72
2022/01/04 03:30:44;;;;;;;3.08;2.25;;;6.60;1.00;;;6.52;79.24;99494.44;5094435;28;20188;-71
2022/01/04 03:33:15;;;;;;;6.35;2.03;;;6.60;21.70;;;6.71;78.51;99484.69;5090649;28;20252;-70
2022/01/04 03:35:44;;;;;;;4.38;2.47;;;6.60;99.90;;;6.68;78.52;99481.59;5092018;28;20178;-70
2022/01/04 03:38:12;;;;;;;7.35;2.50;;;6.70;51.10;;;6.74;78.52;99478.03;5091751;28;20199;-70
2022/01/04 03:40:40;;;;;;;3.78;2.90;;;6.70;1.00;;;6.60;78.63;99481.81;5091886;28;20176;-72
2022/01/04 03:43:09;;;;;;;2.38;2.10;;;6.70;1.00;;;6.66;78.67;99467.53;5091314;28;20206;-70
2022/01/04 03:45:38;;;;;;;6.28;3.00;;;6.70;18.40;;;6.59;78.95;99466.72;5091812;28;20671;-71
2022/01/04 03:48:07;;;;;;;3.25;2.85;;;6.60;72.10;;;6.54;79.18;99467.34;5091384;28;20226;-71
2022/01/04 03:50:35;;;;;;;4.65;3.20;;;6.60;43.70;;;6.61;78.83;99459.28;5091421;28;20183;-71
2022/01/04 03:53:04;;;;;;;5.85;2.53;;;6.60;99.90;;;6.58;79.30;99462.41;5091911;28;20191;-71
2022/01/04 03:55:32;;;;;;;2.97;2.40;;;6.60;99.90;;;6.62;79.27;99452.88;5093586;28;20178;-70
2022/01/04 03:58:01;;;;;;;2.78;2.17;;;6.60;99.90;;;6.60;79.10;99449.56;5093872;28;20201;-72
2022/01/04 04:00:30;;;;;;;2.72;2.40;;;6.60;99.90;;;6.74;78.90;99443.91;5093232;28;20183;-71
2022/01/04 04:03:00;;;;;;;4.90;2.92;;;6.70;99.90;;;6.59;79.12;99447.91;5093711;28;20626;-71
2022/01/04 04:05:29;;;;;;;4.10;2.65;;;6.70;99.90;;;6.64;79.14;99443.53;5093596;28;20723;-72
2022/01/04 04:07:57;;;;;;;5.47;2.60;;;6.70;99.90;;;6.68;79.41;99450.13;5093266;28;20219;-71
2022/01/04 04:10:26;;;;;;;6.45;2.95;;;6.60;1.00;;;6.85;78.66;99429.00;5093170;28;20179;-71
2022/01/04 04:12:54;;;;;;;2.47;2.28;;;6.80;99.90;;;6.70;79.04;99436.50;5093067;28;20700;-73
2022/01/04 04:15:23;;;;;;;8.50;2.92;;;6.70;99.90;;;6.58;79.67;99427.47;5091508;28;20183;-71
2022/01/04 04:17:51;;;;;;;4.10;3.03;;;6.70;99.90;;;6.59;79.83;99423.72;5091472;28;20215;-70
2022/01/04 04:20:22;;;;;;;3.65;3.20;;;6.70;1.00;;;6.76;79.23;99419.53;5092823;28;20219;-71
2022/01/04 04:22:51;;;;;;;5.22;2.83;;;6.70;1.00;;;6.74;79.00;99426.97;5093905;28;20192;-72
2022/01/04 04:25:20;;;;;;;8.02;3.55;;;6.70;99.90;;;6.81;78.73;99428.59;5093605;28;20179;-71
2022/01/04 04:27:48;;;;;;;4.07;2.53;;;6.80;99.90;;;6.80;79.47;99421.56;5094914;28;20730;-70
2022/01/04 04:30:17;;;;;;;6.10;2.50;;;6.80;99.90;;;6.75;79.15;99417.88;5094632;28;20282;-69
2022/01/04 04:32:45;;;;;;;4.18;1.95;;;6.80;99.90;;;6.72;79.47;99418.31;5091447;28;20691;-73
2022/01/04 04:35:14;;;;;;;7.13;2.35;;;6.80;99.90;;;6.77;79.04;99408.56;5093045;28;20180;-70
2022/01/04 04:37:44;;;;;;;5.10;2.97;;;6.80;99.90;;;6.76;79.31;99406.91;5091991;28;20207;-70
2022/01/04 04:40:13;;;;;;;3.90;2.10;;;6.80;99.90;;;6.85;78.89;99404.78;5092157;28;20553;-69
2022/01/04 04:42:42;;;;;;;11.40;2.85;;;6.80;99.90;;;6.72;79.24;99402.19;5092445;28;20226;-70
2022/01/04 04:45:11;;;;;;;3.70;2.03;;;6.70;99.90;;;6.65;79.24;99396.00;5091274;28;20231;-72
2022/01/04 04:47:39;;;;;;;3.13;1.80;;;6.70;99.90;;;6.70;79.24;99409.63;5092053;28;20214;-69
2022/01/04 04:50:09;;;;;;;4.25;1.80;;;6.70;99.90;;;6.59;79.78;99404.91;5091290;28;20187;-73
2022/01/04 04:52:38;;;;;;;5.18;2.08;;;6.70;99.90;;;6.55;79.94;99399.94;5092142;28;20614;-73
2022/01/04 04:55:10;;;;;;;3.45;2.08;;;6.70;1.00;;;6.64;79.42;99399.72;5091737;28;20187;-75
2022/01/04 04:57:40;;;;;;;5.13;2.35;;;6.70;1.00;;;6.51;80.19;99393.34;5091778;28;20595;-69
2022/01/04 05:00:11;;;;;;;4.40;1.80;;;6.60;1.00;;;6.41;80.39;99387.59;5091736;28;20803;-73
2022/01/04 05:02:39;;;;;;;4.35;2.10;;;6.60;1.00;;;6.34;81.09;99380.63;5091957;28;20168;-72
2022/01/04 05:05:09;;;;;;;2.55;1.80;;;6.50;99.90;;;6.33;81.29;99377.09;5091428;28;20183;-72
2022/01/04 05:07:38;;;;;;;3.25;1.77;;;6.40;1.00;;;6.49;80.45;99375.78;5090563;28;20211;-70
2022/01/04 05:10:10;;;;;;;5.18;2.65;;;6.50;99.90;;;6.45;80.95;99367.34;5091757;28;20168;-71
2022/01/04 05:12:41;;;;;;;3.30;2.50;;;6.50;1.00;;;6.51;80.65;99366.50;5091242;28;20180;-70
2022/01/04 05:15:11;;;;;;;9.35;2.58;;;6.50;1.00;;;6.58;80.47;99365.66;5091647;28;20526;-73
2022/01/04 05:17:39;;;;;;;3.00;2.00;;;6.60;1.00;;;6.60;80.29;99368.94;5091373;28;20762;-70
2022/01/04 05:20:10;;;;;;;3.25;2.00;;;6.60;99.90;;;6.66;80.33;99365.38;5090940;28;20608;-70
2022/01/04 05:22:38;;;;;;;4.70;2.55;;;6.60;99.90;;;6.50;80.91;99354.09;5091105;28;20187;-71
2022/01/04 05:25:09;;;;;;;4.90;2.70;;;6.60;26.80;;;6.49;81.20;99344.38;5091063;28;20364;-71
2022/01/04 05:27:37;;;;;;;5.15;2.95;;;6.60;99.90;;;6.54;81.19;99338.34;5091435;28;20215;-72
2022/01/04 05:30:07;;;;;;;3.95;2.45;;;6.60;1.00;;;6.62;81.08;99345.34;5091085;28;20175;-71
2022/01/04 05:32:36;;;;;;;5.07;2.75;;;6.60;99.90;;;6.61;80.70;99341.00;5091497;28;20217;-71
2022/01/04 05:35:06;;;;;;;2.65;2.20;;;6.60;41.10;;;6.65;80.66;99337.69;5091668;28;20194;-71
2022/01/04 05:37:34;;;;;;;5.30;2.60;;;6.60;1.00;;;6.49;81.32;99333.63;5091981;28;20209;-71
2022/01/04 05:40:04;;;;;;;10.38;2.90;;;6.60;99.90;;;6.65;81.01;99328.78;5091540;28;20193;-70
2022/01/04 05:42:34;;;;;;;4.15;2.20;;;6.60;1.00;;;6.77;80.63;99327.09;5090458;28;20199;-71
2022/01/04 05:45:02;;;;;;;5.18;2.70;;;6.70;1.00;;;6.66;80.53;99319.69;5092730;28;20201;-71
2022/01/04 05:47:31;;;;;;;6.28;3.22;;;6.70;99.90;;;6.76;80.38;99318.19;5094937;28;20635;-71
2022/01/04 05:49:59;;;;;;;3.40;1.98;;;6.70;99.90;;;6.87;80.16;99314.00;5095636;28;20163;-70
2022/01/04 05:52:27;;;;;;;8.68;2.90;;;6.80;99.90;;;6.77;80.08;99302.91;5095214;28;20568;-69
2022/01/04 05:54:56;;;;;;;5.72;3.55;;;6.80;1.00;;;6.82;80.38;99311.13;5095148;28;20706;-71
2022/01/04 05:57:24;;;;;;;3.95;2.80;;;6.80;9.60;;;6.72;80.72;99300.03;5095784;28;20199;-73
2022/01/04 05:59:54;;;;;;;3.90;2.80;;;6.80;1.00;;;6.78;80.68;99304.50;5095497;28;20645;-70
2022/01/04 06:02:23;;;;;;;6.10;2.90;;;6.70;99.90;;;6.75;80.78;99288.84;5094703;28;20222;-73
2022/01/04 06:04:51;;;;;;;2.92;2.30;;;6.70;99.90;;;6.80;80.49;99291.69;5096375;28;20171;-72
2022/01/04 06:07:20;;;;;;;4.55;2.70;;;6.70;1.00;;;6.71;80.95;99277.69;5095723;28;20234;-71
2022/01/04 06:09:51;;;;;;;3.70;2.90;;;6.70;1.00;;;6.61;81.43;99261.22;5093313;28;20658;-71
2022/01/04 06:15:11;;;;;;;4.32;2.60;;;6.70;1.00;;;6.81;81.13;99258.41;5093092;28;20203;-72
2022/01/04 06:17:42;;;;;;;5.70;2.83;;;6.70;99.90;;;6.76;81.59;99251.00;5094539;28;20279;-70
2022/01/04 06:20:14;;;;;;;5.30;3.50;;;6.70;1.00;;;6.96;81.02;99243.59;5095112;28;20180;-73
2022/01/04 06:22:44;;;;;;;4.30;2.80;;;6.80;1.00;;;7.01;81.15;99253.72;5094477;28;20176;-72
2022/01/04 06:25:16;;;;;;;4.15;2.92;;;6.90;1.00;;;7.00;80.71;99257.44;5095039;28;20183;-71
2022/01/04 06:27:48;;;;;;;8.48;2.95;;;6.90;11.00;;;6.97;80.77;99244.44;5094679;28;20210;-71
2022/01/04 06:30:21;;;;;;;8.20;3.50;;;7.00;1.00;;;7.04;80.90;99242.50;5094168;28;20176;-70
2022/01/04 06:32:52;;;;;;;5.40;3.47;;;6.90;1.00;;;7.14;80.24;99240.16;5094445;28;20168;-71
2022/01/04 06:35:20;;;;;;;5.15;2.90;;;7.00;99.90;;;7.13;80.20;99243.88;5093102;28;20195;-71
2022/01/04 06:37:49;;;;;;;8.25;3.30;;;7.10;99.90;;;7.11;80.64;99237.91;5094008;28;20592;-72
2022/01/04 06:40:17;;;;;;;4.78;4.00;;;7.00;1.00;;;7.11;80.71;99232.53;5094454;28;20519;-70
2022/01/04 06:42:46;;;;;;;4.15;3.45;;;7.00;1.00;;;7.15;80.42;99231.03;5095256;28;20259;-70
2022/01/04 06:45:14;;;;;;;5.32;3.50;;;7.10;1.00;;;6.96;81.14;99226.66;5095311;28;20190;-68
2022/01/04 06:47:44;;;;;;;4.60;3.97;;;7.00;1.00;;;7.08;80.55;99224.88;5094548;28;20215;-73
2022/01/04 06:50:15;;;;;;;5.75;5.15;;;7.00;1.00;;;7.12;80.68;99217.19;5093778;28;20175;-70
2022/01/04 06:52:43;;;;;;;6.20;3.70;;;7.10;1.00;;;7.07;80.98;99217.06;5093203;28;20574;-72
2022/01/04 06:55:14;;;;;;;8.23;3.90;;;7.10;1.00;;;7.07;80.35;99207.09;5092634;28;20191;-72
2022/01/04 06:57:42;;;;;;;5.22;4.38;;;7.10;99.90;;;6.99;81.06;99210.06;5094270;28;20215;-72
2022/01/04 07:00:13;;;;;;;9.52;5.22;;;7.00;1.00;;;7.19;80.45;99216.09;5095602;28;20171;-71
2022/01/04 07:02:41;;;;;;;8.40;5.95;;;7.10;99.90;;;7.08;80.86;99213.28;5095935;28;20270;-71
2022/01/04 07:05:12;;;;;;;7.38;5.78;;;7.10;99.90;;;7.21;81.11;99216.69;5092983;28;20195;-71
2022/01/04 07:07:40;;;;;;;7.80;6.03;;;7.10;99.90;;;7.31;80.36;99214.31;5093791;28;20294;-72
2022/01/04 07:10:10;;;;;;;7.45;5.40;;;7.20;54.90;;;7.31;80.24;99214.31;5094049;28;20210;-72
2022/01/04 07:12:39;;;;;;;6.13;5.38;;;7.20;99.90;;;7.21;80.44;99207.81;5092594;28;20237;-70
2022/01/04 07:15:09;;;;;;;5.20;4.70;;;7.20;99.90;;;7.29;80.61;99211.03;5093019;28;20191;-74
2022/01/04 07:17:41;;;;;;;8.65;6.55;;;7.20;99.90;;;7.33;80.32;99211.41;5094134;28;20241;-71
2022/01/04 07:20:13;;;;;;;9.73;6.45;;;7.20;99.90;;;7.38;80.47;99214.25;5093687;28;20187;-72
2022/01/04 07:22:41;;;;;;;8.88;6.43;;;7.30;99.90;;;7.43;80.09;99226.00;5094556;28;20340;-73
2022/01/04 07:25:11;;;;;;;9.38;5.95;;;7.30;1.00;;;7.43;80.45;99228.69;5094271;28;20196;-71
2022/01/04 07:27:40;;;;;;;8.15;6.40;;;7.30;1.00;;;7.50;79.60;99219.75;5094175;28;20207;-72
2022/01/04 07:30:09;;;;;;;13.45;6.40;;;7.40;1.00;;;7.50;79.92;99217.88;5094283;28;20211;-73
2022/01/04 07:32:38;;;;;;;8.68;5.78;;;7.40;99.90;;;7.51;79.81;99210.59;5093498;28;20176;-73
2022/01/04 07:35:08;;;;;;;7.85;6.45;;;7.40;99.90;;;7.61;79.19;99209.03;5093696;28;20676;-72
2022/01/04 07:37:37;;;;;;;8.45;6.05;;;7.50;1.00;;;7.62;78.95;99201.78;5093347;28;20211;-72
2022/01/04 07:40:08;;;;;;;7.32;5.35;;;7.50;99.90;;;7.57;79.27;99196.25;5093274;28;20218;-72
2022/01/04 07:42:36;;;;;;;6.03;4.72;;;7.50;99.90;;;7.55;78.99;99198.38;5093811;28;20635;-72
2022/01/04 07:45:07;;;;;;;8.18;5.25;;;7.50;59.70;;;7.72;78.32;99199.41;5095433;28;20183;-71
2022/01/04 07:47:35;;;;;;;7.50;6.00;;;7.60;20.40;;;7.67;78.55;99186.63;5096706;28;20203;-72
2022/01/04 07:50:05;;;;;;;6.78;5.15;;;7.60;1.00;;;7.82;78.12;99197.00;5097259;28;20204;-71
2022/01/04 07:52:34;;;;;;;5.75;4.43;;;7.60;1.00;;;7.90;77.79;99196.69;5098184;28;20171;-71
2022/01/04 07:55:06;;;;;;;6.75;5.22;;;7.80;1.00;;;7.91;77.49;99192.97;5098522;28;20190;-72
2022/01/04 07:57:35;;;;;;;8.93;5.15;;;7.80;99.90;;;7.87;77.53;99197.16;5098720;28;20229;-72
2022/01/04 08:00:05;;;;;;;6.65;5.63;;;7.70;99.90;;;7.94;76.97;99181.72;5098542;28;20191;-72
2022/01/04 08:02:41;;;;;;;11.35;4.88;;;7.80;99.90;;;7.85;77.39;99173.13;5098041;28;20569;-72
2022/01/04 08:05:11;;;;;;;7.80;5.40;;;7.80;99.90;;;7.90;76.84;99177.84;5096874;28;20185;-71
2022/01/04 08:07:40;;;;;;;10.38;5.55;;;7.80;99.90;;;7.93;76.92;99172.03;5093938;28;20747;-71
2022/01/04 08:10:11;;;;;;;6.82;4.65;;;7.90;99.90;;;7.86;76.95;99163.19;5093734;28;20212;-72
2022/01/04 08:12:41;;;;;;;11.45;6.88;;;7.80;71.10;;;8.06;76.45;99169.16;5093639;28;20232;-70
2022/01/04 08:15:12;;;;;;;5.38;4.30;;;7.90;99.90;;;7.93;76.28;99158.56;5093816;28;20187;-71
2022/01/04 08:17:41;;;;;;;7.75;5.10;;;7.90;1.00;;;7.99;76.29;99157.63;5093476;28;20211;-71
2022/01/04 08:20:10;;;;;;;6.45;5.78;;;7.90;1.00;;;8.00;76.30;99153.88;5092770;28;20183;-71
2022/01/04 08:22:39;;;;;;;4.97;3.90;;;7.90;1.00;;;8.02;75.97;99146.41;5091651;28;20427;-71
2022/01/04 08:25:11;;;;;;;5.28;4.70;;;7.90;1.00;;;8.14;75.25;99149.97;5092863;28;20275;-74
2022/01/04 08:27:41;;;;;;;6.57;5.35;;;8.00;1.00;;;8.13;75.25;99137.53;5092270;28;20768;-74
2022/01/04 08:30:13;;;;;;;5.65;4.50;;;8.00;1.00;;;8.25;74.49;99146.50;5091152;28;20204;-72
2022/01/04 08:32:43;;;;;;;5.88;4.68;;;8.10;1.00;;;8.20;74.83;99142.84;5092871;28;20223;-73
2022/01/04 08:35:12;;;;;;;5.53;4.75;;;8.10;1.00;;;8.29;74.84;99142.31;5092737;28;20194;-72
2022/01/04 08:37:41;;;;;;;7.22;5.15;;;8.10;1.00;;;8.37;74.32;99141.19;5091363;28;20211;-71
2022/01/04 08:40:11;;;;;;;5.75;4.63;;;8.20;1.00;;;8.28;74.62;99135.25;5091823;28;20589;-72
2022/01/04 08:42:40;;;;;;;9.27;5.75;;;8.20;1.00;;;8.50;73.99;99142.84;5092185;28;20184;-71
2022/01/04 08:45:09;;;;;;;4.88;4.47;;;8.20;1.00;;;8.24;74.45;99136.75;5090560;28;20213;-71
2022/01/04 08:47:38;;;;;;;4.97;4.47;;;8.20;1.00;;;8.32;74.33;99132.97;5091535;28;20215;-71
2022/01/04 08:50:11;;;;;;;5.88;5.28;;;8.20;1.00;;;8.46;74.01;99141.66;5091341;28;20234;-73
2022/01/04 08:52:40;;;;;;;5.88;5.38;;;8.30;1.00;;;8.35;73.99;99128.97;5091276;28;20672;-70
2022/01/04 08:55:12;;;;;;;8.60;7.38;;;8.30;1.00;;;8.42;73.93;99135.94;5090739;28;20650;-73
2022/01/04 08:57:41;;;;;;;6.72;5.68;;;8.30;1.00;;;8.43;73.62;99137.53;5090520;28;20607;-71
2022/01/04 09:00:12;;;;;;;9.73;4.75;;;8.30;99.90;;;8.38;73.69;99128.50;5091282;28;20293;-72
2022/01/04 09:02:41;;;;;;;6.97;5.78;;;8.30;99.90;;;8.44;74.22;99127.59;5091254;28;20680;-70
2022/01/04 09:05:09;;;;;;;11.20;6.03;;;8.30;99.90;;;8.49;74.24;99120.47;5088414;28;20547;-71
2022/01/04 09:07:39;;;;;;;5.38;4.88;;;8.40;99.90;;;8.50;73.64;99113.19;5090886;28;20689;-72
2022/01/04 09:10:10;;;;;;;4.80;4.28;;;8.40;99.90;;;8.45;73.64;99107.69;5089000;28;20716;-73
2022/01/04 09:12:48;;;;;;;6.03;3.65;;;8.30;99.90;;;8.64;73.04;99103.84;5090933;28;20171;-73
2022/01/04 09:21:20;;;;;;;7.43;4.75;;;8.60;99.90;;;8.73;72.40;99110.53;5094735;28;20194;-72
2022/01/04 09:23:50;;;;;;;7.50;4.57;;;8.60;99.90;;;8.55;72.77;99107.94;5094316;28;20571;-73
2022/01/04 09:26:20;;;;;;;6.07;4.05;;;8.50;99.90;;;8.59;73.21;99109.94;5093410;28;20171;-73
2022/01/04 09:28:48;;;;;;;9.40;6.13;;;8.50;99.90;;;8.60;73.00;99094.56;5090076;28;20211;-72
2022/01/04 09:31:20;;;;;;;8.93;5.05;;;8.50;99.90;;;8.50;73.03;99087.06;5089830;28;20457;-72
2022/01/04 09:33:50;;;;;;;17.85;7.30;;;8.40;99.90;;;8.61;73.25;99088.13;5090773;28;20180;-71
2022/01/04 09:36:31;;;;;;;6.45;5.05;;;8.40;99.90;;;8.57;73.58;99095.84;5090956;28;20481;-73
2022/01/04 09:39:00;;;;;;;11.35;6.50;;;8.50;99.90;;;8.55;74.22;99097.16;5091820;28;20528;-73
2022/01/04 09:41:30;;;;;;;5.60;5.00;;;8.50;99.90;;;8.51;74.55;99085.19;5095610;28;20425;-71
2022/01/04 09:43:59;;;;;;;14.23;5.32;;;8.50;99.90;;;8.60;74.60;99083.78;5097030;28;20190;-70
2022/01/04 09:46:28;;;;;;;8.30;6.63;;;8.50;1.00;;;8.45;75.36;99080.72;5093934;28;20537;-70
2022/01/04 09:48:57;;;;;;;7.32;6.57;;;8.30;1.00;;;8.26;75.82;99083.47;5094349;28;20273;-70
2022/01/04 09:51:27;;;;;;;5.72;5.22;;;8.20;1.00;;;8.19;76.19;99071.13;5091225;28;20217;-69
2022/01/04 09:53:56;;;;;;;10.73;6.03;;;8.20;1.00;;;8.60;75.75;99078.41;5091492;28;20198;-70
2022/01/04 09:56:24;;;;;;;3.90;2.95;;;8.30;1.00;;;8.31;75.97;99073.91;5091021;28;20325;-71
2022/01/04 09:58:55;;;;;;;7.55;4.32;;;8.20;1.00;;;8.21;76.79;99064.47;5090912;28;20207;-69
2022/01/04 10:01:26;;;;;;;5.57;4.18;;;8.20;1.00;;;8.19;76.82;99058.50;5091177;28;20186;-70
2022/01/04 10:04:14;;;;;;;8.13;5.43;;;8.10;1.00;;;8.26;76.82;99061.91;5091247;28;20191;-70
2022/01/04 10:07:01;;;;;;;7.47;6.70;;;8.10;59.40;;;8.38;76.24;99053.03;5089756;28;20560;-71
2022/01/04 10:09:44;;;;;;;4.90;4.45;;;8.20;17.00;;;8.09;76.70;99044.75;5091523;28;20184;-70
2022/01/04 10:12:15;;;;;;;6.28;5.03;;;8.00;1.00;;;8.03;77.08;99028.72;5092077;28;20658;-70
2022/01/04 10:14:47;;;;;;;4.38;3.95;;;7.90;50.80;;;8.07;77.30;99025.34;5092256;28;20182;-69
2022/01/04 10:17:21;;;;;;;5.35;4.07;;;8.00;99.90;;;8.04;77.42;99020.38;5092067;28;20571;-69
2022/01/04 10:19:53;;;;;;;4.10;2.80;;;7.90;99.90;;;8.08;77.00;99021.59;5092054;28;20532;-69
2022/01/04 10:22:24;;;;;;;5.47;3.10;;;7.90;99.90;;;8.27;76.45;99009.69;5091924;28;20191;-71
2022/01/04 10:25:15;;;;;;;3.20;2.60;;;8.00;91.50;;;8.15;76.57;99011.50;5092206;28;20619;-71
2022/01/04 10:27:46;;;;;;;4.57;2.70;;;8.00;14.70;;;8.02;76.95;99006.34;5092330;28;20211;-71
2022/01/04 10:30:25;;;;;;;3.20;2.90;;;7.90;21.60;;;8.18;76.85;98999.47;5092020;28;20187;-71
2022/01/04 10:33:00;;;;;;;8.23;2.58;;;8.00;99.90;;;7.98;77.03;98996.28;5095590;28;20187;-71
2022/01/04 10:35:34;;;;;;;5.53;3.63;;;7.90;49.00;;;7.86;77.99;99001.63;5095477;28;20164;-70
2022/01/04 10:38:15;;;;;;;2.70;2.50;;;7.90;99.90;;;8.15;77.43;98994.53;5095463;28;20742;-70
2022/01/04 10:40:47;;;;;;;5.18;3.22;;;7.90;99.90;;;8.12;77.40;98985.06;5095617;28;20183;-71
2022/01/04 10:43:19;;;;;;;3.88;2.60;;;7.90;99.90;;;8.13;77.00;98986.66;5094240;28;20192;-71
2022/01/04 10:45:51;;;;;;;7.50;4.50;;;8.00;99.90;;;8.16;77.16;98988.09;5097583;28;20244;-69
2022/01/04 10:48:24;;;;;;;6.75;3.95;;;8.00;99.90;;;8.06;77.98;98993.22;5097107;28;20238;-70
2022/01/04 10:50:56;;;;;;;7.93;3.78;;;7.90;99.90;;;8.18;77.77;98994.88;5098624;28;20613;-71
2022/01/04 10:53:29;;;;;;;6.80;5.15;;;8.00;99.90;;;8.20;77.67;98992.78;5094919;28;20199;-69
2022/01/04 10:56:01;;;;;;;5.88;5.28;;;8.10;99.90;;;8.21;77.63;98991.72;5096911;28;20225;-70